Time;durP1;ratioP1;P1;durP2;ratioP2;P2;SDS_P1;SDS_P2;PMS_P1;PMS_P2;Temp;Humidity;BMP_temperature;BMP_pressure;BME280_temperature;BME280_humidity;BME280_pressure;Samples;Min_cycle;Max_cycle;Signal;HPM_P1;HPM_P2
2022/12/23 00:00:11;;;;;;;4.35;1.50;;;;;;;6.10;100.00;94762.81;5064667;28;20098;-74
2022/12/23 00:02:57;;;;;;;12.55;2.38;;;;;;;6.13;100.00;94759.66;5067886;28;20132;-74
2022/12/23 00:05:22;;;;;;;9.40;1.90;;;;;;;6.02;100.00;94745.78;5065204;28;20414;-75
2022/12/23 00:07:48;;;;;;;10.95;2.60;;;;;;;6.04;100.00;94733.28;5049583;28;20147;-75
2022/12/23 00:10:13;;;;;;;9.35;2.72;;;;;;;6.05;100.00;94725.19;5057208;28;20513;-75
2022/12/23 00:15:23;;;;;;;9.90;3.85;;;;;;;5.85;100.00;94710.22;5065245;28;20490;-75
2022/12/23 00:17:48;;;;;;;8.50;2.75;;;;;;;5.86;100.00;94711.81;5049543;28;20048;-75
2022/12/23 00:20:14;;;;;;;17.17;3.60;;;;;;;5.83;100.00;94708.91;5055188;28;20048;-75
2022/12/23 00:25:40;;;;;;;14.82;2.25;;;;;;;5.81;100.00;94724.06;5060905;28;20041;-75
2022/12/23 00:28:06;;;;;;;10.60;2.75;;;;;;;5.79;100.00;94715.69;5065633;28;20516;-75
2022/12/23 00:30:32;;;;;;;4.97;2.00;;;;;;;5.87;100.00;94686.47;5070400;28;20059;-75
2022/12/23 00:32:57;;;;;;;6.57;2.03;;;;;;;5.86;100.00;94706.59;5066285;28;20040;-74
2022/12/23 00:35:23;;;;;;;7.70;1.90;;;;;;;5.83;100.00;94711.53;5065236;28;20553;-74
2022/12/23 00:37:48;;;;;;;6.97;1.42;;;;;;;5.85;100.00;94709.47;5058509;28;20036;-75
2022/12/23 00:42:59;;;;;;;8.02;3.67;;;;;;;5.78;100.00;94677.59;5069467;28;20569;-74
2022/12/23 00:45:25;;;;;;;6.15;2.03;;;;;;;5.73;100.00;94660.88;5066484;28;20052;-74
2022/12/23 00:50:37;;;;;;;;;;;;;;;5.87;100.00;94662.97;5056922;28;20055;-74
2022/12/23 00:53:03;;;;;;;3.90;1.75;;;;;;;5.87;100.00;94660.34;5067975;28;19920;-74
2022/12/23 00:55:29;;;;;;;2.42;1.20;;;;;;;5.81;100.00;94650.97;5070395;28;20048;-74
2022/12/23 00:57:55;;;;;;;4.85;2.28;;;;;;;5.76;100.00;94637.88;5066799;28;20033;-74
2022/12/23 01:05:35;;;;;;;5.10;2.47;;;;;;;5.76;100.00;94648.34;5067341;28;20453;-74
2022/12/23 01:06:02;;;;;;;8.82;2.03;;;;;;;5.70;100.00;94650.16;5059651;28;20058;-74
2022/12/23 01:08:28;;;;;;;7.90;3.17;;;;;;;5.58;100.00;94637.34;5069024;28;20041;-74
2022/12/23 01:10:54;;;;;;;5.15;1.92;;;;;;;5.60;100.00;94640.47;5071687;28;20037;-74
2022/12/23 01:13:20;;;;;;;3.40;1.67;;;;;;;5.58;100.00;94632.13;5063973;28;20446;-74
2022/12/23 01:15:46;;;;;;;7.82;1.85;;;;;;;5.60;100.00;94619.59;5062083;28;20063;-74
2022/12/23 01:18:11;;;;;;;5.57;1.45;;;;;;;5.60;100.00;94630.03;5064554;28;20161;-75
2022/12/23 01:20:38;;;;;;;5.57;1.60;;;;;;;5.57;100.00;94625.34;5068518;28;20049;-74
2022/12/23 01:23:04;;;;;;;4.43;1.73;;;;;;;5.53;100.00;94613.84;5061430;28;20117;-74
2022/12/23 01:25:30;;;;;;;3.47;1.42;;;;;;;5.57;100.00;94614.91;5069942;28;20044;-75
2022/12/23 01:27:55;;;;;;;5.68;1.40;;;;;;;5.64;100.00;94628.47;5064340;28;20039;-74
2022/12/23 01:30:22;;;;;;;1.63;1.05;;;;;;;5.72;100.00;94633.19;5062777;28;20036;-74
2022/12/23 01:32:47;;;;;;;2.67;1.05;;;;;;;5.69;100.00;94631.09;5064288;28;20056;-74
2022/12/23 01:35:13;;;;;;;1.40;0.98;;;;;;;5.76;100.00;94632.66;5064927;28;20462;-75
2022/12/23 01:37:39;;;;;;;4.10;1.48;;;;;;;5.61;100.00;94621.16;5061074;28;20041;-75
2022/12/23 01:40:06;;;;;;;2.90;1.20;;;;;;;5.56;100.00;94634.22;5071153;28;20045;-75
2022/12/23 01:42:43;;;;;;;2.92;1.70;;;;;;;5.59;100.00;94628.50;5063821;28;20037;-75
2022/12/23 01:45:23;;;;;;;2.22;1.40;;;;;;;5.57;100.00;94619.34;5068374;28;20563;-76
2022/12/23 01:48:01;;;;;;;2.35;1.58;;;;;;;5.61;100.00;94636.84;5066804;28;20048;-76
2022/12/23 01:50:52;;;;;;;4.03;1.65;;;;;;;5.59;100.00;94623.28;5064330;28;20039;-75
2022/12/23 01:53:25;;;;;;;1.83;1.30;;;;;;;5.56;100.00;94618.56;5067456;28;20449;-75
2022/12/23 01:55:53;;;;;;;7.50;1.73;;;;;;;5.52;100.00;94612.28;5061605;28;20048;-75
2022/12/23 01:58:29;;;;;;;4.35;1.50;;;;;;;5.55;100.00;94617.00;5068139;28;20351;-76
2022/12/23 02:03:43;;;;;;;3.88;1.38;;;;;;;5.63;100.00;94624.31;5063161;28;20041;-76
2022/12/23 02:11:51;;;;;;;5.60;1.65;;;;;;;5.70;100.00;94624.03;5062808;28;20520;-75
2022/12/23 02:17:28;;;;;;;4.73;1.63;;;;;;;5.62;100.00;94638.41;5057266;28;20498;-74
2022/12/23 02:20:08;;;;;;;3.65;1.67;;;;;;;5.67;100.00;94629.78;5056736;28;20044;-76
2022/12/23 02:23:11;;;;;;;4.63;1.58;;;;;;;5.72;100.00;94638.41;5066873;28;20040;-75
2022/12/23 02:26:01;;;;;;;5.00;1.52;;;;;;;5.70;100.00;94637.91;5065474;28;20131;-75
2022/12/23 02:28:57;;;;;;;6.85;1.70;;;;;;;5.72;100.00;94633.19;5063903;28;20039;-75
2022/12/23 02:31:35;;;;;;;4.30;1.65;;;;;;;5.75;100.00;94633.69;5070387;28;20037;-75
2022/12/23 02:34:15;;;;;;;6.00;1.58;;;;;;;5.72;100.00;94630.59;5062265;28;20037;-75
2022/12/23 02:37:06;;;;;;;7.60;2.40;;;;;;;5.68;100.00;94641.81;5067936;28;20049;-75
2022/12/23 02:39:52;;;;;;;6.32;1.65;;;;;;;5.72;100.00;94637.63;5057466;28;20063;-75
2022/12/23 02:42:32;;;;;;;2.85;1.35;;;;;;;5.81;100.00;94641.28;5056470;28;20064;-75
2022/12/23 02:45:10;;;;;;;5.70;1.40;;;;;;;6.03;100.00;94648.91;5062597;28;20036;-75
2022/12/23 02:47:43;;;;;;;1.98;1.20;;;;;;;6.26;100.00;94635.56;5062586;28;20044;-75
2022/12/23 02:50:16;;;;;;;3.10;1.50;;;;;;;6.34;100.00;94633.22;5060439;28;20419;-76
2022/12/23 02:52:46;;;;;;;2.30;1.30;;;;;;;6.36;100.00;94641.56;5067366;28;20494;-75
2022/12/23 02:55:16;;;;;;;3.50;1.40;;;;;;;6.40;100.00;94642.59;5068274;28;20048;-75
2022/12/23 02:57:47;;;;;;;2.45;1.30;;;;;;;6.58;100.00;94643.13;5052724;28;20037;-75
2022/12/23 03:00:14;;;;;;;3.63;1.30;;;;;;;6.81;100.00;94646.97;5063565;28;20075;-75
2022/12/23 03:02:41;;;;;;;1.65;1.05;;;;;;;6.81;100.00;94651.41;5062887;28;20052;-75
2022/12/23 03:05:27;;;;;;;3.40;1.00;;;;;;;6.92;100.00;94648.53;5066984;28;20037;-75
2022/12/23 03:07:58;;;;;;;0.85;0.80;;;;;;;7.06;100.00;94632.25;5053800;28;20028;-75
2022/12/23 03:10:54;;;;;;;1.30;0.47;;;;;;;7.14;100.00;94638.75;5066292;28;20048;-75
2022/12/23 03:13:47;;;;;;;0.40;0.40;;;;;;;7.27;100.00;94638.94;5061680;28;20052;-76
2022/12/23 03:16:23;;;;;;;2.53;0.82;;;;;;;7.41;100.00;94643.59;5063315;28;20041;-75
2022/12/23 03:19:10;;;;;;;3.03;1.05;;;;;;;7.55;100.00;94643.78;5064486;28;20040;-75
2022/12/23 03:21:44;;;;;;;1.38;0.80;;;;;;;7.55;100.00;94634.06;5062449;28;20668;-75
2022/12/23 03:24:18;;;;;;;3.40;1.08;;;;;;;7.46;100.00;94641.72;5068310;28;20107;-75
2022/12/23 03:26:51;;;;;;;;;;;;;;;7.52;100.00;94639.09;5057738;28;20048;-75
2022/12/23 03:29:27;;;;;;;0.60;0.60;;;;;;;7.59;100.00;94640.34;5057187;28;19924;-75
2022/12/23 03:31:57;;;;;;;1.80;0.77;;;;;;;7.67;100.00;94657.34;5058875;28;20033;-75
2022/12/23 03:34:28;;;;;;;1.33;0.88;;;;;;;7.59;100.00;94650.81;5067540;28;20041;-75
2022/12/23 03:36:59;;;;;;;0.80;0.60;;;;;;;7.75;100.00;94646.25;5053572;28;20048;-74
2022/12/23 03:39:30;;;;;;;0.95;0.65;;;;;;;7.69;100.00;94660.44;5059995;28;20045;-75
2022/12/23 03:42:04;;;;;;;0.95;0.70;;;;;;;7.86;100.00;94651.44;5068109;28;20037;-76
2022/12/23 03:44:39;;;;;;;1.75;0.70;;;;;;;7.79;100.00;94647.28;5054868;28;20072;-75
2022/12/23 03:47:10;;;;;;;3.22;0.80;;;;;;;7.91;100.00;94656.66;5056452;28;20048;-75
2022/12/23 03:49:45;;;;;;;0.93;0.75;;;;;;;7.76;100.00;94654.91;5051330;28;20095;-75
2022/12/23 03:52:15;;;;;;;2.22;1.15;;;;;;;7.78;100.00;94656.19;5054526;28;20502;-75
2022/12/23 03:55:03;;;;;;;21.70;1.17;;;;;;;7.98;100.00;94662.34;5056516;28;20060;-75
2022/12/23 03:57:48;;;;;;;0.98;0.85;;;;;;;8.00;100.00;94670.72;5071194;28;20430;-75
2022/12/23 04:00:13;;;;;;;1.27;0.70;;;;;;;8.05;100.00;94673.31;5066954;28;20047;-75
2022/12/23 04:02:51;;;;;;;1.10;0.82;;;;;;;7.99;100.00;94674.41;5072581;28;20044;-75
2022/12/23 04:05:23;;;;;;;1.08;0.77;;;;;;;8.13;100.00;94675.34;5064955;28;20512;-75
2022/12/23 04:08:06;;;;;;;1.23;0.93;;;;;;;8.05;100.00;94673.31;5063619;28;20032;-76
2022/12/23 04:10:33;;;;;;;1.30;0.63;;;;;;;8.13;100.00;94664.88;5068510;28;20079;-76
2022/12/23 04:13:01;;;;;;;1.40;0.63;;;;;;;8.07;100.00;94671.19;5073001;28;20047;-75
2022/12/23 04:15:27;;;;;;;1.90;0.73;;;;;;;8.11;100.00;94661.72;5065144;28;20032;-76
2022/12/23 04:17:55;;;;;;;3.28;0.95;;;;;;;8.12;100.00;94673.78;5065804;28;20581;-76
2022/12/23 04:20:21;;;;;;;0.88;0.80;;;;;;;8.09;100.00;94679.56;5062091;28;20044;-76
2022/12/23 04:22:47;;;;;;;0.57;0.50;;;;;;;8.09;100.00;94687.44;5067265;28;20037;-76
2022/12/23 04:25:14;;;;;;;2.97;0.82;;;;;;;8.15;100.00;94675.84;5071462;28;20410;-76
2022/12/23 04:27:40;;;;;;;0.85;0.73;;;;;;;8.15;100.00;94683.72;5062765;28;20041;-75
2022/12/23 04:30:07;;;;;;;0.80;0.70;;;;;;;8.30;100.00;94695.13;5065253;28;20044;-75
2022/12/23 04:32:33;;;;;;;1.27;0.70;;;;;;;8.32;100.00;94687.78;5070999;28;20068;-76
2022/12/23 04:34:58;;;;;;;0.40;0.40;;;;;;;8.26;100.00;94691.50;5061162;28;20068;-75
2022/12/23 04:37:24;;;;;;;1.48;0.55;;;;;;;8.30;100.00;94689.88;5070268;28;20048;-76
2022/12/23 04:39:50;;;;;;;2.47;0.85;;;;;;;8.15;100.00;94694.19;5071095;28;20040;-76
2022/12/23 04:42:15;;;;;;;2.75;0.57;;;;;;;8.24;100.00;94685.75;5053226;28;20090;-76
2022/12/23 04:44:41;;;;;;;1.88;0.77;;;;;;;8.28;100.00;94692.03;5066684;28;20037;-76
2022/12/23 04:47:06;;;;;;;0.47;0.47;;;;;;;8.35;100.00;94692.47;5068306;28;20047;-75
2022/12/23 04:49:32;;;;;;;1.30;0.68;;;;;;;8.21;100.00;94699.41;5053278;28;20049;-76
2022/12/23 04:51:57;;;;;;;0.60;0.40;;;;;;;8.21;100.00;94692.31;5069453;28;20060;-76
2022/12/23 04:54:23;;;;;;;0.40;0.40;;;;;;;8.31;100.00;94707.97;5056291;28;20041;-75
2022/12/23 04:56:49;;;;;;;0.65;0.50;;;;;;;8.34;100.00;94711.88;5065036;28;20498;-75
2022/12/23 04:59:14;;;;;;;1.02;0.35;;;;;;;8.42;100.00;94707.88;5067991;28;20040;-76
2022/12/23 05:01:41;;;;;;;0.75;0.65;;;;;;;8.39;100.00;94711.84;5068502;28;20045;-75
2022/12/23 05:04:07;;;;;;;1.95;0.60;;;;;;;8.24;100.00;94701.47;5072351;28;20104;-76
2022/12/23 05:06:33;;;;;;;0.68;0.57;;;;;;;8.36;100.00;94699.31;5065788;28;20044;-75
2022/12/23 05:08:59;;;;;;;1.67;0.82;;;;;;;8.38;100.00;94707.66;5070171;28;20052;-75
2022/12/23 05:11:24;;;;;;;0.52;0.50;;;;;;;8.46;100.00;94701.88;5065053;28;20040;-76
2022/12/23 05:13:50;;;;;;;0.80;0.52;;;;;;;8.45;100.00;94713.41;5062751;28;20036;-76
2022/12/23 05:16:16;;;;;;;0.73;0.47;;;;;;;8.40;100.00;94707.38;5060745;28;20052;-76
2022/12/23 05:18:41;;;;;;;2.67;1.35;;;;;;;8.43;100.00;94715.50;5061469;28;20473;-76
2022/12/23 05:21:07;;;;;;;2.10;0.63;;;;;;;8.41;100.00;94707.09;5068475;28;20056;-76
2022/12/23 05:23:32;;;;;;;0.77;0.57;;;;;;;8.42;100.00;94708.69;5072029;28;20049;-75
2022/12/23 05:25:58;;;;;;;1.15;0.82;;;;;;;8.34;100.00;94706.63;5068342;28;20041;-76
2022/12/23 05:28:24;;;;;;;1.27;0.82;;;;;;;8.38;100.00;94702.41;5063765;28;20520;-76
2022/12/23 05:31:00;;;;;;;1.23;0.85;;;;;;;8.34;100.00;94717.13;5061460;28;20789;-75
2022/12/23 05:33:26;;;;;;;5.18;1.00;;;;;;;8.28;100.00;94705.13;5068923;28;20124;-76
2022/12/23 05:35:51;;;;;;;1.40;0.77;;;;;;;8.33;100.00;94710.31;5060448;28;20044;-76
2022/12/23 05:38:17;;;;;;;1.10;0.70;;;;;;;8.30;100.00;94716.09;5069580;28;20041;-75
2022/12/23 05:40:42;;;;;;;1.65;0.90;;;;;;;8.22;100.00;94721.94;5069027;28;20060;-76
2022/12/23 05:43:08;;;;;;;1.05;0.60;;;;;;;8.26;100.00;94720.31;5060378;28;20044;-76
2022/12/23 05:45:35;;;;;;;0.60;0.50;;;;;;;8.34;100.00;94722.38;5064438;28;20037;-76
2022/12/23 05:48:00;;;;;;;2.47;1.08;;;;;;;8.26;100.00;94718.50;5068810;28;20550;-76
2022/12/23 05:50:26;;;;;;;1.17;0.70;;;;;;;8.31;100.00;94720.31;5061067;28;20062;-76
2022/12/23 05:52:51;;;;;;;1.40;0.77;;;;;;;8.25;100.00;94718.78;5072030;28;20063;-76
2022/12/23 05:55:17;;;;;;;1.95;0.65;;;;;;;8.10;100.00;94723.06;5061997;28;20563;-76
2022/12/23 05:57:42;;;;;;;0.65;0.65;;;;;;;8.17;100.00;94721.97;5068215;28;20091;-76
2022/12/23 06:00:09;;;;;;;3.42;0.75;;;;;;;8.18;100.00;94729.56;5066985;28;20051;-76
2022/12/23 06:02:34;;;;;;;0.63;0.60;;;;;;;8.05;100.00;94720.47;5071302;28;20040;-76
2022/12/23 06:05:00;;;;;;;4.40;0.82;;;;;;;8.27;100.00;94727.91;5065192;28;20041;-76
2022/12/23 06:07:25;;;;;;;0.63;0.50;;;;;;;8.27;100.00;94729.75;5065701;28;20486;-76
2022/12/23 06:09:51;;;;;;;3.53;0.70;;;;;;;8.30;100.00;94732.63;5061172;28;20102;-76
2022/12/23 06:12:16;;;;;;;2.05;0.63;;;;;;;8.29;100.00;94735.53;5070245;28;20040;-76
2022/12/23 06:14:42;;;;;;;1.95;0.93;;;;;;;8.41;100.00;94732.56;5062007;28;20086;-75
2022/12/23 06:17:07;;;;;;;1.05;0.90;;;;;;;8.39;100.00;94742.50;5065349;28;20065;-76
2022/12/23 06:19:33;;;;;;;1.67;0.85;;;;;;;8.41;100.00;94749.06;5058522;28;20033;-76
2022/12/23 06:21:58;;;;;;;0.85;0.73;;;;;;;8.46;100.00;94751.69;5066875;28;20036;-76
2022/12/23 06:24:24;;;;;;;4.07;1.02;;;;;;;8.53;100.00;94750.56;5070457;28;20044;-76
2022/12/23 06:26:49;;;;;;;2.30;0.93;;;;;;;8.54;100.00;94752.16;5062528;28;20048;-75
2022/12/23 06:29:15;;;;;;;2.63;1.02;;;;;;;8.55;100.00;94751.06;5062650;28;20116;-76
2022/12/23 06:31:40;;;;;;;0.80;0.80;;;;;;;8.57;100.00;94757.63;5067530;28;20041;-76
2022/12/23 06:34:06;;;;;;;1.45;0.93;;;;;;;8.46;100.00;94756.94;5070581;28;20509;-76
2022/12/23 06:36:31;;;;;;;0.93;0.80;;;;;;;8.44;100.00;94764.25;5063405;28;20685;-76
2022/12/23 06:38:57;;;;;;;2.20;0.88;;;;;;;8.47;100.00;94762.94;5066902;28;20039;-76
2022/12/23 06:41:22;;;;;;;2.85;1.10;;;;;;;8.46;100.00;94777.91;5068202;28;20044;-75
2022/12/23 06:43:48;;;;;;;3.65;0.93;;;;;;;8.53;100.00;94787.28;5063309;28;20057;-76
2022/12/23 06:46:13;;;;;;;2.35;1.00;;;;;;;8.56;100.00;94795.41;5060162;28;20114;-74
2022/12/23 06:48:40;;;;;;;2.50;0.82;;;;;;;8.62;100.00;94790.88;5057684;28;20558;-76
2022/12/23 06:51:05;;;;;;;1.13;0.82;;;;;;;8.64;100.00;94794.81;5061811;28;20116;-76
2022/12/23 06:53:31;;;;;;;3.05;1.00;;;;;;;8.74;100.00;94799.19;5068948;28;20051;-76
2022/12/23 06:56:00;;;;;;;2.90;1.08;;;;;;;8.75;100.00;94792.91;5059451;28;20490;-75
2022/12/23 06:58:26;;;;;;;1.45;0.80;;;;;;;8.67;100.00;94793.47;5068966;28;20064;-76
2022/12/23 07:00:52;;;;;;;2.50;1.10;;;;;;;8.80;100.00;94820.94;5061683;28;20103;-76
2022/12/23 07:03:17;;;;;;;2.28;1.10;;;;;;;8.83;100.00;94813.31;5065237;28;20147;-76
2022/12/23 07:05:47;;;;;;;3.22;1.02;;;;;;;8.94;100.00;94819.22;5068572;28;20044;-76
2022/12/23 07:08:12;;;;;;;1.85;0.95;;;;;;;9.02;100.00;94825.72;5058819;28;20049;-75
2022/12/23 07:10:38;;;;;;;3.88;0.90;;;;;;;9.02;100.00;94825.72;5066962;28;20457;-76
2022/12/23 07:13:03;;;;;;;3.55;0.80;;;;;;;8.97;100.00;94828.41;5067909;28;20119;-76
2022/12/23 07:15:29;;;;;;;3.92;0.93;;;;;;;9.00;100.00;94833.09;5050962;28;20414;-75
2022/12/23 07:17:54;;;;;;;1.05;0.70;;;;;;;8.92;100.00;94836.31;5062924;28;20460;-76
2022/12/23 07:20:20;;;;;;;0.77;0.70;;;;;;;8.90;100.00;94846.31;5056680;28;20218;-76
2022/12/23 07:22:45;;;;;;;1.27;1.00;;;;;;;8.99;100.00;94848.06;5069408;28;20047;-75
2022/12/23 07:25:11;;;;;;;2.35;0.85;;;;;;;9.00;100.00;94833.09;5063160;28;20033;-75
2022/12/23 07:27:36;;;;;;;1.65;1.00;;;;;;;9.02;100.00;94847.53;5062275;28;20072;-76
2022/12/23 07:30:02;;;;;;;2.40;1.20;;;;;;;8.88;100.00;94843.16;5072212;28;20097;-76
2022/12/23 07:32:28;;;;;;;3.83;1.48;;;;;;;8.89;100.00;94842.09;5071532;28;20047;-76
2022/12/23 07:34:53;;;;;;;2.63;1.33;;;;;;;8.93;100.00;94843.91;5067602;28;20040;-76
2022/12/23 07:37:19;;;;;;;3.88;1.40;;;;;;;8.91;100.00;94840.00;5063876;28;20072;-76
2022/12/23 07:39:44;;;;;;;1.83;1.10;;;;;;;8.97;100.00;94849.41;5054320;28;20576;-76
2022/12/23 07:42:11;;;;;;;1.30;1.10;;;;;;;8.99;100.00;94844.66;5057666;28;20044;-76
2022/12/23 07:44:37;;;;;;;1.77;1.10;;;;;;;9.02;100.00;94846.72;5069704;28;20041;-76
2022/12/23 07:47:02;;;;;;;1.80;0.90;;;;;;;8.99;100.00;94850.69;5065139;28;20574;-76
2022/12/23 07:49:28;;;;;;;1.67;1.20;;;;;;;8.84;100.00;94856.81;5070836;28;20037;-76
2022/12/23 07:51:53;;;;;;;2.33;1.20;;;;;;;8.87;100.00;94849.47;5067095;28;20417;-77
2022/12/23 07:54:19;;;;;;;4.28;1.50;;;;;;;8.83;100.00;94857.91;5069739;28;20041;-76
2022/12/23 07:56:44;;;;;;;4.57;1.73;;;;;;;8.76;100.00;94844.28;5068436;28;20040;-76
2022/12/23 07:59:10;;;;;;;2.45;1.40;;;;;;;8.89;100.00;94853.38;5071676;28;20516;-76
2022/12/23 08:01:35;;;;;;;2.13;1.13;;;;;;;8.91;100.00;94855.75;5065392;28;20124;-75
2022/12/23 08:04:01;;;;;;;2.03;1.00;;;;;;;9.09;100.00;94852.44;5063249;28;20533;-74
2022/12/23 08:06:27;;;;;;;2.28;1.25;;;;;;;9.13;100.00;94852.69;5056149;28;20036;-74
2022/12/23 08:08:52;;;;;;;1.60;1.02;;;;;;;9.22;100.00;94858.88;5063523;28;20055;-75
2022/12/23 08:11:18;;;;;;;1.55;1.10;;;;;;;9.29;100.00;94861.19;5058756;28;20173;-76
2022/12/23 08:13:45;;;;;;;5.53;1.77;;;;;;;9.22;100.00;94850.25;5062075;28;20418;-76
2022/12/23 08:16:11;;;;;;;2.05;1.20;;;;;;;9.31;100.00;94852.00;5054321;28;20045;-76
2022/12/23 08:18:38;;;;;;;0.90;0.80;;;;;;;9.43;100.00;94862.13;5069291;28;20155;-76
2022/12/23 08:21:05;;;;;;;1.65;1.05;;;;;;;9.41;100.00;94864.25;5067636;28;20423;-76
2022/12/23 08:23:32;;;;;;;2.75;0.93;;;;;;;9.33;100.00;94862.22;5070355;28;20064;-76
2022/12/23 08:26:12;;;;;;;2.00;0.80;;;;;;;9.25;100.00;94865.44;5072832;28;20155;-76
2022/12/23 08:28:39;;;;;;;0.90;0.70;;;;;;;9.28;100.00;94859.63;5065073;28;20060;-76
2022/12/23 08:31:14;;;;;;;1.92;0.98;;;;;;;9.35;100.00;94870.59;5052195;28;20052;-76
2022/12/23 08:33:42;;;;;;;1.17;0.68;;;;;;;9.39;100.00;94860.31;5069371;28;20130;-76
2022/12/23 08:36:12;;;;;;;0.95;0.73;;;;;;;9.46;100.00;94864.19;5066869;28;20110;-76
2022/12/23 08:38:37;;;;;;;1.20;0.90;;;;;;;9.45;100.00;94860.00;5062321;28;20506;-76
2022/12/23 08:41:08;;;;;;;2.38;1.08;;;;;;;9.34;100.00;94858.53;5058435;28;20052;-76
2022/12/23 08:43:33;;;;;;;1.45;0.68;;;;;;;9.39;100.00;94861.09;5070630;28;20041;-76
2022/12/23 08:45:59;;;;;;;1.27;0.93;;;;;;;9.40;100.00;94857.41;5066658;28;20489;-76
2022/12/23 08:48:24;;;;;;;1.77;0.75;;;;;;;9.43;100.00;94856.09;5060525;28;20072;-77
2022/12/23 08:50:50;;;;;;;1.65;0.82;;;;;;;9.53;100.00;94862.00;5070584;28;20131;-76
2022/12/23 08:53:15;;;;;;;1.75;0.80;;;;;;;9.54;100.00;94862.81;5064615;28;20052;-76
2022/12/23 08:55:44;;;;;;;1.13;1.00;;;;;;;9.58;100.00;94863.03;5061025;28;20049;-76
2022/12/23 08:58:11;;;;;;;1.35;0.88;;;;;;;9.64;100.00;94869.78;5067634;28;20557;-76
2022/12/23 09:00:37;;;;;;;1.33;0.90;;;;;;;9.64;100.00;94877.66;5072666;28;20050;-75
2022/12/23 09:03:03;;;;;;;1.15;0.77;;;;;;;9.66;100.00;94886.06;5061850;28;20041;-75
2022/12/23 09:05:29;;;;;;;2.60;1.17;;;;;;;9.65;100.00;94895.00;5065583;28;20064;-76
2022/12/23 09:07:55;;;;;;;2.70;1.25;;;;;;;9.67;100.00;94906.03;5070133;28;20086;-75
2022/12/23 09:10:22;;;;;;;3.92;1.17;;;;;;;9.61;100.00;94909.75;5070328;28;20434;-76
2022/12/23 09:12:48;;;;;;;1.58;0.90;;;;;;;9.59;100.00;94917.13;5059871;28;20414;-74
2022/12/23 09:15:14;;;;;;;2.28;1.30;;;;;;;9.56;100.00;94917.69;5064734;28;20055;-74
2022/12/23 09:17:39;;;;;;;2.33;1.27;;;;;;;9.56;100.00;94912.44;5064907;28;20429;-73
2022/12/23 09:20:06;;;;;;;1.63;1.27;;;;;;;9.65;100.00;94900.25;5067274;28;20037;-74
2022/12/23 09:22:32;;;;;;;1.25;1.00;;;;;;;9.73;100.00;94907.53;5070928;28;20041;-74
2022/12/23 09:24:58;;;;;;;2.53;1.05;;;;;;;9.71;100.00;94899.94;5071771;28;20036;-74
2022/12/23 09:27:24;;;;;;;1.40;1.00;;;;;;;9.76;100.00;94896.47;5051360;28;20391;-75
2022/12/23 09:29:49;;;;;;;1.23;0.75;;;;;;;9.82;100.00;94900.59;5072012;28;20040;-74
2022/12/23 09:32:15;;;;;;;1.80;0.95;;;;;;;9.83;100.00;94901.41;5070765;28;20517;-75
2022/12/23 09:34:40;;;;;;;3.42;1.00;;;;;;;9.92;100.00;94898.94;5055618;28;20052;-75
2022/12/23 09:37:06;;;;;;;0.93;0.88;;;;;;;9.96;100.00;94894.69;5066160;28;20041;-75
2022/12/23 09:39:31;;;;;;;1.27;0.85;;;;;;;10.04;100.00;94891.44;5069823;28;20048;-74
2022/12/23 09:42:38;;;;;;;3.03;1.00;;;;;;;9.93;100.00;94895.22;5071478;28;20526;-75
2022/12/23 09:45:15;;;;;;;1.13;0.85;;;;;;;9.89;100.00;94890.53;5068633;28;20044;-74
2022/12/23 09:47:42;;;;;;;4.50;1.30;;;;;;;10.07;100.00;94890.91;5069113;28;20044;-74
2022/12/23 09:50:16;;;;;;;3.75;1.17;;;;;;;10.68;100.00;94888.56;5066495;28;20048;-75
2022/12/23 09:52:57;;;;;;;0.95;0.70;;;;;;;10.46;100.00;94887.28;5066970;28;20502;-75
2022/12/23 09:55:32;;;;;;;3.33;1.25;;;;;;;10.32;100.00;94891.66;5067035;28;20406;-75
2022/12/23 09:58:02;;;;;;;;;;;;;;;10.19;100.00;94878.13;5068192;28;20395;-75
2022/12/23 10:00:37;;;;;;;2.45;1.10;;;;;;;10.17;100.00;94875.00;5067489;28;19927;-75
2022/12/23 10:03:34;;;;;;;2.05;1.00;;;;;;;10.22;100.00;94872.28;5065028;28;20055;-75
2022/12/23 10:06:17;;;;;;;1.90;1.02;;;;;;;10.13;100.00;94879.25;5061777;28;20071;-75
2022/12/23 10:08:46;;;;;;;1.70;0.98;;;;;;;10.10;100.00;94869.28;5068270;28;20040;-75
2022/12/23 10:11:16;;;;;;;4.40;1.30;;;;;;;10.13;100.00;94868.72;5067981;28;20102;-75
2022/12/23 10:13:51;;;;;;;1.80;1.00;;;;;;;10.19;100.00;94878.13;5069508;28;20041;-75
2022/12/23 10:16:21;;;;;;;2.47;1.40;;;;;;;10.12;100.00;94877.69;5065010;28;20574;-75
2022/12/23 10:19:02;;;;;;;2.03;0.98;;;;;;;10.17;100.00;94882.88;5066427;28;20032;-74
2022/12/23 10:21:38;;;;;;;0.98;0.82;;;;;;;10.17;100.00;94875.00;5068627;28;20556;-75
2022/12/23 10:24:19;;;;;;;1.95;0.95;;;;;;;10.28;100.00;94870.38;5064657;28;20122;-75
2022/12/23 10:26:51;;;;;;;3.63;1.10;;;;;;;10.26;100.00;94871.72;5059324;28;20042;-75
2022/12/23 10:29:20;;;;;;;4.05;1.13;;;;;;;10.20;100.00;94863.91;5067303;28;20048;-74
2022/12/23 10:31:51;;;;;;;4.07;1.40;;;;;;;10.18;100.00;94860.75;5068418;28;20487;-75
2022/12/23 10:34:29;;;;;;;2.40;1.42;;;;;;;10.21;100.00;94860.22;5063823;28;20641;-75
2022/12/23 10:37:13;;;;;;;2.85;1.35;;;;;;;10.14;100.00;94859.78;5067529;28;20045;-75
2022/12/23 10:39:54;;;;;;;1.65;0.95;;;;;;;10.19;100.00;94861.56;5070307;28;20051;-76
2022/12/23 10:42:34;;;;;;;1.83;1.10;;;;;;;10.16;100.00;94868.16;5060274;28;20041;-75
2022/12/23 10:45:08;;;;;;;3.80;1.40;;;;;;;10.15;100.00;94856.06;5063048;28;20287;-76
2022/12/23 10:47:46;;;;;;;1.23;1.00;;;;;;;10.13;100.00;94858.22;5051820;28;20049;-75
2022/12/23 10:50:23;;;;;;;1.58;1.20;;;;;;;10.06;100.00;94861.19;5067929;28;20066;-76
2022/12/23 10:52:50;;;;;;;3.45;1.00;;;;;;;10.00;100.00;94853.66;5072140;28;20036;-75
2022/12/23 10:55:26;;;;;;;1.60;1.10;;;;;;;9.94;100.00;94854.75;5071271;28;20044;-76
2022/12/23 10:57:55;;;;;;;2.00;1.40;;;;;;;9.87;100.00;94855.88;5063498;28;20041;-76
2022/12/23 11:00:22;;;;;;;4.22;1.33;;;;;;;9.80;100.00;94855.44;5068924;28;20505;-75
2022/12/23 11:03:28;;;;;;;1.60;1.15;;;;;;;9.79;100.00;94853.09;5064920;28;20041;-74
2022/12/23 11:05:56;;;;;;;3.13;1.67;;;;;;;9.80;100.00;94850.19;5018530;28;20049;-75
2022/12/23 11:08:24;;;;;;;6.45;2.00;;;;;;;9.83;100.00;94849.63;5020302;28;20038;-73
2022/12/23 11:10:51;;;;;;;3.78;1.75;;;;;;;9.87;100.00;94845.38;5065396;28;20041;-73
2022/12/23 11:13:35;;;;;;;2.85;1.50;;;;;;;9.97;100.00;94848.94;5084380;28;20020;-73
2022/12/23 11:16:21;;;;;;;3.63;2.07;;;;;;;10.00;100.00;94848.41;5095906;28;20028;-72
2022/12/23 11:18:52;;;;;;;7.10;1.90;;;;;;;10.02;100.00;94846.25;5091463;28;20024;-73
2022/12/23 11:21:18;;;;;;;9.38;2.38;;;;;;;10.06;100.00;94842.00;5096094;28;20059;-72
2022/12/23 11:23:44;;;;;;;2.55;1.42;;;;;;;10.06;100.00;94831.50;5091917;28;20037;-72
2022/12/23 11:26:17;;;;;;;4.40;1.95;;;;;;;10.20;100.00;94842.88;5095662;28;20063;-72
2022/12/23 11:28:50;;;;;;;2.77;1.50;;;;;;;10.22;100.00;94835.47;5091800;28;20029;-72
2022/12/23 11:31:26;;;;;;;5.18;2.08;;;;;;;10.23;100.00;94831.78;5082525;28;20045;-76
2022/12/23 11:33:59;;;;;;;3.90;2.10;;;;;;;10.22;100.00;94827.59;5062008;28;20045;-76
2022/12/23 11:36:26;;;;;;;2.45;1.23;;;;;;;10.38;100.00;94832.69;5056475;28;20414;-76
2022/12/23 11:38:54;;;;;;;2.58;1.15;;;;;;;10.49;100.00;94828.84;5052383;28;20490;-76
2022/12/23 11:41:22;;;;;;;2.65;1.35;;;;;;;10.36;100.00;94829.56;5069656;28;20498;-76
2022/12/23 11:44:00;;;;;;;3.70;1.40;;;;;;;10.28;100.00;94815.16;5057916;28;20049;-76
2022/12/23 11:46:29;;;;;;;2.33;1.25;;;;;;;10.32;100.00;94820.63;5067724;28;20534;-75
2022/12/23 11:49:12;;;;;;;6.10;1.80;;;;;;;10.33;100.00;94811.66;5062255;28;20070;-76
2022/12/23 11:51:38;;;;;;;5.53;1.65;;;;;;;10.32;100.00;94812.75;5065857;28;20395;-74
2022/12/23 11:54:04;;;;;;;5.05;1.58;;;;;;;10.21;100.00;94802.38;5060042;28;20043;-76
2022/12/23 11:56:38;;;;;;;1.58;1.20;;;;;;;10.32;100.00;94802.22;5069381;28;20044;-77
2022/12/23 11:59:41;;;;;;;2.97;1.10;;;;;;;10.28;100.00;94806.50;5064683;28;20048;-76
2022/12/23 12:02:21;;;;;;;1.35;1.00;;;;;;;10.36;100.00;94798.00;5057063;28;20068;-75
2022/12/23 12:04:57;;;;;;;3.85;1.10;;;;;;;10.38;100.00;94807.16;5060411;28;20043;-74
2022/12/23 12:07:24;;;;;;;3.15;1.02;;;;;;;10.41;100.00;94800.53;5055588;28;20048;-75
2022/12/23 12:09:50;;;;;;;3.38;1.05;;;;;;;10.35;100.00;94788.53;5063702;28;20493;-76